sensor_id;sensor_type;location;lat;lon;timestamp;temperature;humidity
78779;DHT22;68121;52.404;5.318;2024-02-26T00:00:08;5.50;72.80
78779;DHT22;68121;52.404;5.318;2024-02-26T00:02:38;5.50;72.70
78779;DHT22;68121;52.404;5.318;2024-02-26T00:05:06;5.50;72.80
78779;DHT22;68121;52.404;5.318;2024-02-26T00:07:32;5.50;72.80
78779;DHT22;68121;52.404;5.318;2024-02-26T00:09:59;5.50;72.70
78779;DHT22;68121;52.404;5.318;2024-02-26T00:12:25;5.50;72.80
78779;DHT22;68121;52.404;5.318;2024-02-26T00:14:51;5.50;72.80
78779;DHT22;68121;52.404;5.318;2024-02-26T00:17:18;5.40;72.80
78779;DHT22;68121;52.404;5.318;2024-02-26T00:19:44;5.40;72.80
78779;DHT22;68121;52.404;5.318;2024-02-26T00:22:10;5.40;72.80
78779;DHT22;68121;52.404;5.318;2024-02-26T00:24:36;5.40;72.90
78779;DHT22;68121;52.404;5.318;2024-02-26T00:27:02;5.40;72.80
78779;DHT22;68121;52.404;5.318;2024-02-26T00:29:29;5.40;72.80
78779;DHT22;68121;52.404;5.318;2024-02-26T00:31:55;5.40;72.90
78779;DHT22;68121;52.404;5.318;2024-02-26T00:34:21;5.40;72.90
78779;DHT22;68121;52.404;5.318;2024-02-26T00:36:47;5.30;72.90
78779;DHT22;68121;52.404;5.318;2024-02-26T00:39:13;5.40;73.00
78779;DHT22;68121;52.404;5.318;2024-02-26T00:41:42;5.30;73.00
78779;DHT22;68121;52.404;5.318;2024-02-26T00:44:08;5.30;73.00
78779;DHT22;68121;52.404;5.318;2024-02-26T00:46:34;5.30;73.00
78779;DHT22;68121;52.404;5.318;2024-02-26T00:49:00;5.30;73.00
78779;DHT22;68121;52.404;5.318;2024-02-26T00:51:27;5.30;73.00
78779;DHT22;68121;52.404;5.318;2024-02-26T00:53:54;5.30;73.00
78779;DHT22;68121;52.404;5.318;2024-02-26T00:56:20;5.30;73.00
78779;DHT22;68121;52.404;5.318;2024-02-26T00:58:47;5.30;73.00
78779;DHT22;68121;52.404;5.318;2024-02-26T01:01:13;5.30;73.10
78779;DHT22;68121;52.404;5.318;2024-02-26T01:03:39;5.30;73.10
78779;DHT22;68121;52.404;5.318;2024-02-26T01:06:05;5.30;73.00
78779;DHT22;68121;52.404;5.318;2024-02-26T01:08:31;5.30;73.00
78779;DHT22;68121;52.404;5.318;2024-02-26T01:10:57;5.30;73.00
78779;DHT22;68121;52.404;5.318;2024-02-26T01:13:23;5.30;73.00
78779;DHT22;68121;52.404;5.318;2024-02-26T01:15:49;5.30;73.00
78779;DHT22;68121;52.404;5.318;2024-02-26T01:18:15;5.30;73.00
78779;DHT22;68121;52.404;5.318;2024-02-26T01:20:41;5.30;73.00
78779;DHT22;68121;52.404;5.318;2024-02-26T01:23:07;5.30;73.00
78779;DHT22;68121;52.404;5.318;2024-02-26T01:25:33;5.30;73.00
78779;DHT22;68121;52.404;5.318;2024-02-26T01:27:59;5.30;73.00
78779;DHT22;68121;52.404;5.318;2024-02-26T01:30:25;5.30;73.00
78779;DHT22;68121;52.404;5.318;2024-02-26T01:32:51;5.30;73.00
78779;DHT22;68121;52.404;5.318;2024-02-26T01:35:17;5.20;73.10
78779;DHT22;68121;52.404;5.318;2024-02-26T01:37:43;5.20;73.10
78779;DHT22;68121;52.404;5.318;2024-02-26T01:40:10;5.20;73.20
78779;DHT22;68121;52.404;5.318;2024-02-26T01:42:38;5.20;73.10
78779;DHT22;68121;52.404;5.318;2024-02-26T01:45:05;5.20;73.20
78779;DHT22;68121;52.404;5.318;2024-02-26T01:47:33;5.20;73.20
78779;DHT22;68121;52.404;5.318;2024-02-26T01:49:59;5.20;73.20
78779;DHT22;68121;52.404;5.318;2024-02-26T01:52:25;5.20;73.20
78779;DHT22;68121;52.404;5.318;2024-02-26T01:54:51;5.10;73.20
78779;DHT22;68121;52.404;5.318;2024-02-26T01:57:17;5.10;73.20
78779;DHT22;68121;52.404;5.318;2024-02-26T01:59:43;5.10;73.20
78779;DHT22;68121;52.404;5.318;2024-02-26T02:02:10;5.10;73.30
78779;DHT22;68121;52.404;5.318;2024-02-26T02:04:37;5.10;73.30
78779;DHT22;68121;52.404;5.318;2024-02-26T02:07:03;5.10;73.30
78779;DHT22;68121;52.404;5.318;2024-02-26T02:09:30;5.10;73.30
78779;DHT22;68121;52.404;5.318;2024-02-26T02:11:56;5.10;73.30
78779;DHT22;68121;52.404;5.318;2024-02-26T02:14:24;5.10;73.30
78779;DHT22;68121;52.404;5.318;2024-02-26T02:16:51;5.10;73.30
78779;DHT22;68121;52.404;5.318;2024-02-26T02:19:17;5.10;73.30
78779;DHT22;68121;52.404;5.318;2024-02-26T02:21:43;5.10;73.30
78779;DHT22;68121;52.404;5.318;2024-02-26T02:24:09;5.20;73.30
78779;DHT22;68121;52.404;5.318;2024-02-26T02:26:35;5.20;73.30
78779;DHT22;68121;52.404;5.318;2024-02-26T02:29:02;5.20;73.30
78779;DHT22;68121;52.404;5.318;2024-02-26T02:31:28;5.20;73.30
78779;DHT22;68121;52.404;5.318;2024-02-26T02:33:54;5.20;73.30
78779;DHT22;68121;52.404;5.318;2024-02-26T02:36:20;5.20;73.30
78779;DHT22;68121;52.404;5.318;2024-02-26T02:38:50;5.20;73.30
78779;DHT22;68121;52.404;5.318;2024-02-26T02:41:17;5.20;73.40
78779;DHT22;68121;52.404;5.318;2024-02-26T02:43:43;5.20;73.40
78779;DHT22;68121;52.404;5.318;2024-02-26T02:46:10;5.20;73.40
78779;DHT22;68121;52.404;5.318;2024-02-26T02:48:37;5.20;73.40
78779;DHT22;68121;52.404;5.318;2024-02-26T02:51:04;5.20;73.40
78779;DHT22;68121;52.404;5.318;2024-02-26T02:53:30;5.10;73.40
78779;DHT22;68121;52.404;5.318;2024-02-26T02:55:56;5.10;73.40
78779;DHT22;68121;52.404;5.318;2024-02-26T02:58:22;5.20;73.40
78779;DHT22;68121;52.404;5.318;2024-02-26T03:00:48;5.20;73.40
78779;DHT22;68121;52.404;5.318;2024-02-26T03:03:14;5.10;73.50
78779;DHT22;68121;52.404;5.318;2024-02-26T03:05:40;5.10;73.50
78779;DHT22;68121;52.404;5.318;2024-02-26T03:08:06;5.20;73.40
78779;DHT22;68121;52.404;5.318;2024-02-26T03:10:32;5.20;73.40
78779;DHT22;68121;52.404;5.318;2024-02-26T03:12:58;5.20;73.50
78779;DHT22;68121;52.404;5.318;2024-02-26T03:15:25;5.20;73.40
78779;DHT22;68121;52.404;5.318;2024-02-26T03:17:51;5.10;73.40
78779;DHT22;68121;52.404;5.318;2024-02-26T03:20:17;5.10;73.50
78779;DHT22;68121;52.404;5.318;2024-02-26T03:22:45;5.10;73.50
78779;DHT22;68121;52.404;5.318;2024-02-26T03:25:11;5.10;73.50
78779;DHT22;68121;52.404;5.318;2024-02-26T03:27:37;5.10;73.50
78779;DHT22;68121;52.404;5.318;2024-02-26T03:30:03;5.10;73.50
78779;DHT22;68121;52.404;5.318;2024-02-26T03:32:30;5.00;73.50
78779;DHT22;68121;52.404;5.318;2024-02-26T03:34:56;5.00;73.60
78779;DHT22;68121;52.404;5.318;2024-02-26T03:37:22;5.00;73.60
78779;DHT22;68121;52.404;5.318;2024-02-26T03:39:48;5.00;73.60
78779;DHT22;68121;52.404;5.318;2024-02-26T03:42:14;5.00;73.60
78779;DHT22;68121;52.404;5.318;2024-02-26T03:44:40;5.00;73.70
78779;DHT22;68121;52.404;5.318;2024-02-26T03:47:06;5.00;73.70
78779;DHT22;68121;52.404;5.318;2024-02-26T03:49:32;4.90;73.70
78779;DHT22;68121;52.404;5.318;2024-02-26T03:51:58;5.00;73.80
78779;DHT22;68121;52.404;5.318;2024-02-26T03:54:24;5.00;73.70
78779;DHT22;68121;52.404;5.318;2024-02-26T03:56:50;4.90;73.80
78779;DHT22;68121;52.404;5.318;2024-02-26T03:59:16;5.00;73.80
78779;DHT22;68121;52.404;5.318;2024-02-26T04:01:46;5.00;73.80
78779;DHT22;68121;52.404;5.318;2024-02-26T04:04:15;4.90;73.70
78779;DHT22;68121;52.404;5.318;2024-02-26T04:06:47;4.90;73.80
78779;DHT22;68121;52.404;5.318;2024-02-26T04:09:14;4.90;73.80
78779;DHT22;68121;52.404;5.318;2024-02-26T04:11:41;4.90;73.80
78779;DHT22;68121;52.404;5.318;2024-02-26T04:14:09;4.90;73.80
78779;DHT22;68121;52.404;5.318;2024-02-26T04:16:37;5.00;73.90
78779;DHT22;68121;52.404;5.318;2024-02-26T04:19:03;4.90;73.80
78779;DHT22;68121;52.404;5.318;2024-02-26T04:21:29;5.00;73.80
78779;DHT22;68121;52.404;5.318;2024-02-26T04:23:55;5.00;73.80
78779;DHT22;68121;52.404;5.318;2024-02-26T04:26:21;5.00;73.90
78779;DHT22;68121;52.404;5.318;2024-02-26T04:28:47;5.00;73.90
78779;DHT22;68121;52.404;5.318;2024-02-26T04:31:13;4.90;73.90
78779;DHT22;68121;52.404;5.318;2024-02-26T04:33:39;4.90;73.90
78779;DHT22;68121;52.404;5.318;2024-02-26T04:36:13;4.90;73.90
78779;DHT22;68121;52.404;5.318;2024-02-26T04:38:40;4.90;74.00
78779;DHT22;68121;52.404;5.318;2024-02-26T04:41:06;4.90;73.90
78779;DHT22;68121;52.404;5.318;2024-02-26T04:43:32;4.90;74.00
78779;DHT22;68121;52.404;5.318;2024-02-26T04:45:58;4.90;74.00
78779;DHT22;68121;52.404;5.318;2024-02-26T04:48:24;4.90;74.00
78779;DHT22;68121;52.404;5.318;2024-02-26T04:50:50;4.90;74.00
78779;DHT22;68121;52.404;5.318;2024-02-26T04:53:16;4.90;74.00
78779;DHT22;68121;52.404;5.318;2024-02-26T04:55:42;4.90;74.10
78779;DHT22;68121;52.404;5.318;2024-02-26T04:58:08;5.00;74.10
78779;DHT22;68121;52.404;5.318;2024-02-26T05:00:34;5.00;74.00
78779;DHT22;68121;52.404;5.318;2024-02-26T05:03:00;5.00;74.10
78779;DHT22;68121;52.404;5.318;2024-02-26T05:05:26;5.00;74.10
78779;DHT22;68121;52.404;5.318;2024-02-26T05:07:52;5.00;74.10
78779;DHT22;68121;52.404;5.318;2024-02-26T05:10:18;5.00;74.10
78779;DHT22;68121;52.404;5.318;2024-02-26T05:12:44;5.00;74.20
78779;DHT22;68121;52.404;5.318;2024-02-26T05:15:11;5.00;74.20
78779;DHT22;68121;52.404;5.318;2024-02-26T05:17:37;5.00;74.20
78779;DHT22;68121;52.404;5.318;2024-02-26T05:20:03;5.00;74.30
78779;DHT22;68121;52.404;5.318;2024-02-26T05:22:29;5.00;74.30
78779;DHT22;68121;52.404;5.318;2024-02-26T05:24:55;5.00;74.30
78779;DHT22;68121;52.404;5.318;2024-02-26T05:27:22;5.00;74.30
78779;DHT22;68121;52.404;5.318;2024-02-26T05:29:48;5.00;74.30
78779;DHT22;68121;52.404;5.318;2024-02-26T05:32:14;5.00;74.30
78779;DHT22;68121;52.404;5.318;2024-02-26T05:34:40;5.00;74.30
78779;DHT22;68121;52.404;5.318;2024-02-26T05:37:07;5.00;74.40
78779;DHT22;68121;52.404;5.318;2024-02-26T05:39:33;5.00;74.30
78779;DHT22;68121;52.404;5.318;2024-02-26T05:41:59;5.00;74.40
78779;DHT22;68121;52.404;5.318;2024-02-26T05:44:26;5.00;74.30
78779;DHT22;68121;52.404;5.318;2024-02-26T05:46:52;5.00;74.40
78779;DHT22;68121;52.404;5.318;2024-02-26T05:49:19;5.00;74.40
78779;DHT22;68121;52.404;5.318;2024-02-26T05:51:45;5.00;74.50
78779;DHT22;68121;52.404;5.318;2024-02-26T05:54:11;5.00;74.50
78779;DHT22;68121;52.404;5.318;2024-02-26T05:56:37;5.00;74.40
78779;DHT22;68121;52.404;5.318;2024-02-26T05:59:03;4.90;74.40
78779;DHT22;68121;52.404;5.318;2024-02-26T06:01:29;5.00;74.50
78779;DHT22;68121;52.404;5.318;2024-02-26T06:03:55;4.90;74.50
78779;DHT22;68121;52.404;5.318;2024-02-26T06:06:21;4.90;74.60
78779;DHT22;68121;52.404;5.318;2024-02-26T06:08:49;4.90;74.60
78779;DHT22;68121;52.404;5.318;2024-02-26T06:11:15;4.90;74.50
78779;DHT22;68121;52.404;5.318;2024-02-26T06:13:41;4.90;74.60
78779;DHT22;68121;52.404;5.318;2024-02-26T06:16:08;4.90;74.70
78779;DHT22;68121;52.404;5.318;2024-02-26T06:18:34;4.80;74.70
78779;DHT22;68121;52.404;5.318;2024-02-26T06:21:00;4.80;74.70
78779;DHT22;68121;52.404;5.318;2024-02-26T06:23:26;4.80;74.70
78779;DHT22;68121;52.404;5.318;2024-02-26T06:25:52;4.80;74.70
78779;DHT22;68121;52.404;5.318;2024-02-26T06:28:19;4.70;74.70
78779;DHT22;68121;52.404;5.318;2024-02-26T06:30:45;4.70;74.80
78779;DHT22;68121;52.404;5.318;2024-02-26T06:33:12;4.80;74.80
78779;DHT22;68121;52.404;5.318;2024-02-26T06:35:38;4.80;74.80
78779;DHT22;68121;52.404;5.318;2024-02-26T06:38:04;4.80;74.80
78779;DHT22;68121;52.404;5.318;2024-02-26T06:40:30;4.70;74.80
78779;DHT22;68121;52.404;5.318;2024-02-26T06:42:56;4.80;74.70
78779;DHT22;68121;52.404;5.318;2024-02-26T06:45:22;4.70;74.80
78779;DHT22;68121;52.404;5.318;2024-02-26T06:47:48;4.70;74.80
78779;DHT22;68121;52.404;5.318;2024-02-26T06:50:14;4.70;74.80
78779;DHT22;68121;52.404;5.318;2024-02-26T06:52:40;4.70;74.80
78779;DHT22;68121;52.404;5.318;2024-02-26T06:55:07;4.70;74.80
78779;DHT22;68121;52.404;5.318;2024-02-26T06:57:34;4.70;74.80
78779;DHT22;68121;52.404;5.318;2024-02-26T07:00:00;4.70;74.80
78779;DHT22;68121;52.404;5.318;2024-02-26T07:02:26;4.70;74.80
78779;DHT22;68121;52.404;5.318;2024-02-26T07:04:52;4.70;74.80
78779;DHT22;68121;52.404;5.318;2024-02-26T07:07:18;4.70;74.90
78779;DHT22;68121;52.404;5.318;2024-02-26T07:09:44;4.70;74.90
78779;DHT22;68121;52.404;5.318;2024-02-26T07:12:14;4.70;74.90
78779;DHT22;68121;52.404;5.318;2024-02-26T07:14:42;4.70;74.80
78779;DHT22;68121;52.404;5.318;2024-02-26T07:17:08;4.70;74.90
78779;DHT22;68121;52.404;5.318;2024-02-26T07:19:34;4.60;74.90
78779;DHT22;68121;52.404;5.318;2024-02-26T07:22:00;4.60;74.80
78779;DHT22;68121;52.404;5.318;2024-02-26T07:24:27;4.60;74.90
78779;DHT22;68121;52.404;5.318;2024-02-26T07:26:54;4.60;74.90
78779;DHT22;68121;52.404;5.318;2024-02-26T07:29:23;4.70;74.90
78779;DHT22;68121;52.404;5.318;2024-02-26T07:31:49;4.70;74.90
78779;DHT22;68121;52.404;5.318;2024-02-26T07:34:15;4.70;74.90
78779;DHT22;68121;52.404;5.318;2024-02-26T07:36:41;4.70;74.90
78779;DHT22;68121;52.404;5.318;2024-02-26T07:39:07;4.70;74.80
78779;DHT22;68121;52.404;5.318;2024-02-26T07:41:33;4.70;74.80
78779;DHT22;68121;52.404;5.318;2024-02-26T07:43:59;4.70;74.70
78779;DHT22;68121;52.404;5.318;2024-02-26T07:46:25;4.70;74.80
78779;DHT22;68121;52.404;5.318;2024-02-26T07:48:51;4.70;74.80
78779;DHT22;68121;52.404;5.318;2024-02-26T07:51:17;4.70;74.80
78779;DHT22;68121;52.404;5.318;2024-02-26T07:53:43;4.70;74.70
78779;DHT22;68121;52.404;5.318;2024-02-26T07:56:09;4.70;74.70
78779;DHT22;68121;52.404;5.318;2024-02-26T07:58:35;4.70;74.80
78779;DHT22;68121;52.404;5.318;2024-02-26T08:01:01;4.70;74.70
78779;DHT22;68121;52.404;5.318;2024-02-26T08:03:27;4.70;74.70
78779;DHT22;68121;52.404;5.318;2024-02-26T08:05:53;4.70;74.70
78779;DHT22;68121;52.404;5.318;2024-02-26T08:08:20;4.70;74.60
78779;DHT22;68121;52.404;5.318;2024-02-26T08:10:46;4.70;74.70
78779;DHT22;68121;52.404;5.318;2024-02-26T08:13:12;4.70;74.60
78779;DHT22;68121;52.404;5.318;2024-02-26T08:15:38;4.80;74.60
78779;DHT22;68121;52.404;5.318;2024-02-26T08:18:05;4.70;74.60
78779;DHT22;68121;52.404;5.318;2024-02-26T08:20:31;4.80;74.60
78779;DHT22;68121;52.404;5.318;2024-02-26T08:22:57;4.80;74.50
78779;DHT22;68121;52.404;5.318;2024-02-26T08:25:24;4.80;74.50
78779;DHT22;68121;52.404;5.318;2024-02-26T08:27:50;4.90;74.40
78779;DHT22;68121;52.404;5.318;2024-02-26T08:30:16;4.90;74.40
78779;DHT22;68121;52.404;5.318;2024-02-26T08:32:43;4.90;74.40
78779;DHT22;68121;52.404;5.318;2024-02-26T08:35:10;4.90;74.40
78779;DHT22;68121;52.404;5.318;2024-02-26T08:37:36;4.90;74.40
78779;DHT22;68121;52.404;5.318;2024-02-26T08:40:02;4.90;74.40
78779;DHT22;68121;52.404;5.318;2024-02-26T08:42:30;4.90;74.40
78779;DHT22;68121;52.404;5.318;2024-02-26T08:44:56;5.00;74.40
78779;DHT22;68121;52.404;5.318;2024-02-26T08:47:22;5.00;74.30
78779;DHT22;68121;52.404;5.318;2024-02-26T08:49:48;5.00;74.20
78779;DHT22;68121;52.404;5.318;2024-02-26T08:52:14;5.00;74.20
78779;DHT22;68121;52.404;5.318;2024-02-26T08:54:40;5.00;74.10
78779;DHT22;68121;52.404;5.318;2024-02-26T08:57:06;5.00;74.00
78779;DHT22;68121;52.404;5.318;2024-02-26T08:59:32;5.00;74.00
78779;DHT22;68121;52.404;5.318;2024-02-26T09:01:58;5.00;74.00
78779;DHT22;68121;52.404;5.318;2024-02-26T09:04:24;5.00;74.00
78779;DHT22;68121;52.404;5.318;2024-02-26T09:06:51;5.10;73.80
78779;DHT22;68121;52.404;5.318;2024-02-26T09:09:17;5.10;73.90
78779;DHT22;68121;52.404;5.318;2024-02-26T09:11:43;5.10;73.80
78779;DHT22;68121;52.404;5.318;2024-02-26T09:14:09;5.10;73.80
78779;DHT22;68121;52.404;5.318;2024-02-26T09:16:35;5.20;73.80
78779;DHT22;68121;52.404;5.318;2024-02-26T09:19:01;5.20;73.80
78779;DHT22;68121;52.404;5.318;2024-02-26T09:21:28;5.20;73.70
78779;DHT22;68121;52.404;5.318;2024-02-26T09:23:54;5.30;73.70
78779;DHT22;68121;52.404;5.318;2024-02-26T09:26:20;5.30;73.60
78779;DHT22;68121;52.404;5.318;2024-02-26T09:28:46;5.30;73.70
78779;DHT22;68121;52.404;5.318;2024-02-26T09:31:12;5.30;73.70
78779;DHT22;68121;52.404;5.318;2024-02-26T09:33:41;5.40;73.60
78779;DHT22;68121;52.404;5.318;2024-02-26T09:36:08;5.40;73.50
78779;DHT22;68121;52.404;5.318;2024-02-26T09:38:37;5.40;73.50
78779;DHT22;68121;52.404;5.318;2024-02-26T09:41:07;5.50;73.50
78779;DHT22;68121;52.404;5.318;2024-02-26T09:43:42;5.50;73.50
78779;DHT22;68121;52.404;5.318;2024-02-26T09:46:09;5.50;73.40
78779;DHT22;68121;52.404;5.318;2024-02-26T09:48:36;5.50;73.40
78779;DHT22;68121;52.404;5.318;2024-02-26T09:51:03;5.50;73.50
78779;DHT22;68121;52.404;5.318;2024-02-26T09:53:30;5.50;73.30
78779;DHT22;68121;52.404;5.318;2024-02-26T09:55:58;5.50;73.40
78779;DHT22;68121;52.404;5.318;2024-02-26T09:58:28;5.50;73.40
78779;DHT22;68121;52.404;5.318;2024-02-26T10:00:56;5.50;73.30
78779;DHT22;68121;52.404;5.318;2024-02-26T10:03:31;5.60;73.30
78779;DHT22;68121;52.404;5.318;2024-02-26T10:06:00;5.60;73.30
78779;DHT22;68121;52.404;5.318;2024-02-26T10:08:28;5.60;73.30
78779;DHT22;68121;52.404;5.318;2024-02-26T10:10:56;5.60;73.20
78779;DHT22;68121;52.404;5.318;2024-02-26T10:13:22;5.60;73.30
78779;DHT22;68121;52.404;5.318;2024-02-26T10:15:49;5.60;73.30
78779;DHT22;68121;52.404;5.318;2024-02-26T10:18:15;5.60;73.20
78779;DHT22;68121;52.404;5.318;2024-02-26T10:20:41;5.60;73.20
78779;DHT22;68121;52.404;5.318;2024-02-26T10:23:07;5.60;73.20
78779;DHT22;68121;52.404;5.318;2024-02-26T10:25:33;5.60;73.20
78779;DHT22;68121;52.404;5.318;2024-02-26T10:28:02;5.60;73.20
78779;DHT22;68121;52.404;5.318;2024-02-26T10:30:29;5.60;73.20
78779;DHT22;68121;52.404;5.318;2024-02-26T10:32:56;5.60;73.20
78779;DHT22;68121;52.404;5.318;2024-02-26T10:35:23;5.70;73.00
78779;DHT22;68121;52.404;5.318;2024-02-26T10:37:50;5.70;73.10
78779;DHT22;68121;52.404;5.318;2024-02-26T10:40:16;5.70;73.10
78779;DHT22;68121;52.404;5.318;2024-02-26T10:42:43;5.70;73.00
78779;DHT22;68121;52.404;5.318;2024-02-26T10:45:09;5.70;73.00
78779;DHT22;68121;52.404;5.318;2024-02-26T10:47:36;5.80;73.00
78779;DHT22;68121;52.404;5.318;2024-02-26T10:50:04;5.80;72.90
78779;DHT22;68121;52.404;5.318;2024-02-26T10:52:32;5.80;73.00
78779;DHT22;68121;52.404;5.318;2024-02-26T10:55:05;5.80;72.90
78779;DHT22;68121;52.404;5.318;2024-02-26T10:57:38;5.80;72.90
78779;DHT22;68121;52.404;5.318;2024-02-26T11:00:06;5.80;72.80
78779;DHT22;68121;52.404;5.318;2024-02-26T11:02:34;5.90;72.80
78779;DHT22;68121;52.404;5.318;2024-02-26T11:05:03;5.90;72.80
78779;DHT22;68121;52.404;5.318;2024-02-26T11:07:34;5.90;72.70
78779;DHT22;68121;52.404;5.318;2024-02-26T11:10:02;6.00;72.70
78779;DHT22;68121;52.404;5.318;2024-02-26T11:12:30;6.00;72.60
78779;DHT22;68121;52.404;5.318;2024-02-26T11:14:57;6.00;72.60
78779;DHT22;68121;52.404;5.318;2024-02-26T11:17:27;6.00;72.50
78779;DHT22;68121;52.404;5.318;2024-02-26T11:19:58;6.10;72.50
78779;DHT22;68121;52.404;5.318;2024-02-26T11:22:26;6.10;72.50
78779;DHT22;68121;52.404;5.318;2024-02-26T11:24:53;6.10;72.50
78779;DHT22;68121;52.404;5.318;2024-02-26T11:27:23;6.20;72.30
78779;DHT22;68121;52.404;5.318;2024-02-26T11:29:52;6.20;72.30
78779;DHT22;68121;52.404;5.318;2024-02-26T11:32:20;6.20;72.30
78779;DHT22;68121;52.404;5.318;2024-02-26T11:34:47;6.20;72.30
78779;DHT22;68121;52.404;5.318;2024-02-26T11:37:16;6.30;72.30
78779;DHT22;68121;52.404;5.318;2024-02-26T11:39:43;6.30;72.20
78779;DHT22;68121;52.404;5.318;2024-02-26T11:42:14;6.40;72.20
78779;DHT22;68121;52.404;5.318;2024-02-26T11:44:40;6.40;72.10
78779;DHT22;68121;52.404;5.318;2024-02-26T11:47:11;6.50;72.00
78779;DHT22;68121;52.404;5.318;2024-02-26T11:49:37;6.40;71.90
78779;DHT22;68121;52.404;5.318;2024-02-26T11:52:06;6.40;71.80
78779;DHT22;68121;52.404;5.318;2024-02-26T11:54:49;6.50;71.70
78779;DHT22;68121;52.404;5.318;2024-02-26T11:57:38;6.50;71.80
78779;DHT22;68121;52.404;5.318;2024-02-26T12:00:11;6.50;71.70
78779;DHT22;68121;52.404;5.318;2024-02-26T12:02:52;6.50;71.70
78779;DHT22;68121;52.404;5.318;2024-02-26T12:05:31;6.50;71.60
78779;DHT22;68121;52.404;5.318;2024-02-26T12:08:05;6.60;71.60
78779;DHT22;68121;52.404;5.318;2024-02-26T12:10:36;6.60;71.50
78779;DHT22;68121;52.404;5.318;2024-02-26T12:13:11;6.70;71.50
78779;DHT22;68121;52.404;5.318;2024-02-26T12:15:41;6.70;71.50
78779;DHT22;68121;52.404;5.318;2024-02-26T12:18:09;6.70;71.40
78779;DHT22;68121;52.404;5.318;2024-02-26T12:20:38;6.80;71.30
78779;DHT22;68121;52.404;5.318;2024-02-26T12:23:04;6.70;71.30
78779;DHT22;68121;52.404;5.318;2024-02-26T12:25:31;6.70;71.20
78779;DHT22;68121;52.404;5.318;2024-02-26T12:27:59;6.70;71.20
78779;DHT22;68121;52.404;5.318;2024-02-26T12:30:25;6.70;71.20
78779;DHT22;68121;52.404;5.318;2024-02-26T12:32:53;6.70;71.10
78779;DHT22;68121;52.404;5.318;2024-02-26T12:35:24;6.70;71.20
78779;DHT22;68121;52.404;5.318;2024-02-26T12:37:53;6.70;71.20
78779;DHT22;68121;52.404;5.318;2024-02-26T12:40:20;6.70;71.10
78779;DHT22;68121;52.404;5.318;2024-02-26T12:42:46;6.70;71.10
78779;DHT22;68121;52.404;5.318;2024-02-26T12:45:13;6.80;71.00
78779;DHT22;68121;52.404;5.318;2024-02-26T12:47:42;6.80;70.90
78779;DHT22;68121;52.404;5.318;2024-02-26T12:50:09;6.80;70.90
78779;DHT22;68121;52.404;5.318;2024-02-26T12:52:45;6.80;70.80
78779;DHT22;68121;52.404;5.318;2024-02-26T12:55:17;6.90;70.70
78779;DHT22;68121;52.404;5.318;2024-02-26T12:57:45;6.80;70.60
78779;DHT22;68121;52.404;5.318;2024-02-26T13:00:13;6.80;70.50
78779;DHT22;68121;52.404;5.318;2024-02-26T13:02:41;6.80;70.50
78779;DHT22;68121;52.404;5.318;2024-02-26T13:05:12;6.80;70.50
78779;DHT22;68121;52.404;5.318;2024-02-26T13:07:45;6.90;70.60
78779;DHT22;68121;52.404;5.318;2024-02-26T13:10:15;6.90;70.50
78779;DHT22;68121;52.404;5.318;2024-02-26T13:12:47;6.90;70.40
78779;DHT22;68121;52.404;5.318;2024-02-26T13:15:16;6.90;70.40
78779;DHT22;68121;52.404;5.318;2024-02-26T13:17:46;6.90;70.40
78779;DHT22;68121;52.404;5.318;2024-02-26T13:20:13;7.00;70.30
78779;DHT22;68121;52.404;5.318;2024-02-26T13:22:40;7.00;70.30
78779;DHT22;68121;52.404;5.318;2024-02-26T13:25:07;7.00;70.30
78779;DHT22;68121;52.404;5.318;2024-02-26T13:27:33;7.00;70.30
78779;DHT22;68121;52.404;5.318;2024-02-26T13:30:03;7.00;70.20
78779;DHT22;68121;52.404;5.318;2024-02-26T13:32:35;7.00;70.10
78779;DHT22;68121;52.404;5.318;2024-02-26T13:35:11;6.90;70.10
78779;DHT22;68121;52.404;5.318;2024-02-26T13:37:39;6.90;70.20
78779;DHT22;68121;52.404;5.318;2024-02-26T13:40:14;7.00;70.20
78779;DHT22;68121;52.404;5.318;2024-02-26T13:42:40;7.00;70.10
78779;DHT22;68121;52.404;5.318;2024-02-26T13:45:07;7.00;70.00
78779;DHT22;68121;52.404;5.318;2024-02-26T13:47:34;7.00;70.00
78779;DHT22;68121;52.404;5.318;2024-02-26T13:50:00;7.00;70.00
78779;DHT22;68121;52.404;5.318;2024-02-26T13:52:27;7.00;69.90
78779;DHT22;68121;52.404;5.318;2024-02-26T13:54:53;7.00;69.90
78779;DHT22;68121;52.404;5.318;2024-02-26T13:57:19;7.00;69.90
78779;DHT22;68121;52.404;5.318;2024-02-26T13:59:46;7.00;69.80
78779;DHT22;68121;52.404;5.318;2024-02-26T14:02:12;7.00;69.80
78779;DHT22;68121;52.404;5.318;2024-02-26T14:04:38;7.00;69.80
78779;DHT22;68121;52.404;5.318;2024-02-26T14:07:04;7.00;69.90
78779;DHT22;68121;52.404;5.318;2024-02-26T14:09:30;7.00;69.80
78779;DHT22;68121;52.404;5.318;2024-02-26T14:11:59;7.00;69.80
78779;DHT22;68121;52.404;5.318;2024-02-26T14:14:27;7.00;69.70
78779;DHT22;68121;52.404;5.318;2024-02-26T14:16:54;7.00;69.60
78779;DHT22;68121;52.404;5.318;2024-02-26T14:19:20;7.00;69.70
78779;DHT22;68121;52.404;5.318;2024-02-26T14:21:46;7.00;69.70
78779;DHT22;68121;52.404;5.318;2024-02-26T14:24:14;7.10;69.70
78779;DHT22;68121;52.404;5.318;2024-02-26T14:26:40;7.10;69.70
78779;DHT22;68121;52.404;5.318;2024-02-26T14:29:06;7.20;69.60
78779;DHT22;68121;52.404;5.318;2024-02-26T14:31:33;7.20;69.60
78779;DHT22;68121;52.404;5.318;2024-02-26T14:33:59;7.20;69.50
78779;DHT22;68121;52.404;5.318;2024-02-26T14:36:25;7.20;69.50
78779;DHT22;68121;52.404;5.318;2024-02-26T14:38:51;7.20;69.50
78779;DHT22;68121;52.404;5.318;2024-02-26T14:41:17;7.20;69.50
78779;DHT22;68121;52.404;5.318;2024-02-26T14:43:43;7.20;69.50
78779;DHT22;68121;52.404;5.318;2024-02-26T14:46:09;7.20;69.50
78779;DHT22;68121;52.404;5.318;2024-02-26T14:48:35;7.20;69.40
78779;DHT22;68121;52.404;5.318;2024-02-26T14:51:02;7.30;69.50
78779;DHT22;68121;52.404;5.318;2024-02-26T14:53:28;7.30;69.50
78779;DHT22;68121;52.404;5.318;2024-02-26T14:55:54;7.40;69.40
78779;DHT22;68121;52.404;5.318;2024-02-26T14:58:20;7.30;69.30
78779;DHT22;68121;52.404;5.318;2024-02-26T15:00:46;7.30;69.40
78779;DHT22;68121;52.404;5.318;2024-02-26T15:03:12;7.20;69.40
78779;DHT22;68121;52.404;5.318;2024-02-26T15:05:38;7.30;69.40
78779;DHT22;68121;52.404;5.318;2024-02-26T15:08:04;7.30;69.30
78779;DHT22;68121;52.404;5.318;2024-02-26T15:10:34;7.30;69.40
78779;DHT22;68121;52.404;5.318;2024-02-26T15:13:00;7.30;69.40
78779;DHT22;68121;52.404;5.318;2024-02-26T15:15:26;7.20;69.40
78779;DHT22;68121;52.404;5.318;2024-02-26T15:17:53;7.20;69.30
78779;DHT22;68121;52.404;5.318;2024-02-26T15:20:19;7.20;69.40
78779;DHT22;68121;52.404;5.318;2024-02-26T15:22:45;7.20;69.40
78779;DHT22;68121;52.404;5.318;2024-02-26T15:25:12;7.20;69.40
78779;DHT22;68121;52.404;5.318;2024-02-26T15:27:38;7.10;69.50
78779;DHT22;68121;52.404;5.318;2024-02-26T15:30:05;7.00;69.50
78779;DHT22;68121;52.404;5.318;2024-02-26T15:32:31;7.00;69.70
78779;DHT22;68121;52.404;5.318;2024-02-26T15:34:57;7.00;69.70
78779;DHT22;68121;52.404;5.318;2024-02-26T15:37:23;7.00;69.80
78779;DHT22;68121;52.404;5.318;2024-02-26T15:39:49;6.90;69.90
78779;DHT22;68121;52.404;5.318;2024-02-26T15:42:16;6.90;69.90